Braunlage, Germany

9:42 AM CET on February 07, 2016 (GMT +0100)
Ilsenburg - Nordharz | | Change Station
CLOSE
Current Station
Personal Weather Station
Location: Ilsenburg, SA
Elevation: 1066 ft
Nearby Weather Stations

Elev 1066 ft 51.85 °N, 10.67 °E | Updated 42 minutes ago

Clear
Clear
50.2 °F
Feels Like 50.2 °F
N
3.1
Wind Variable Wind from WSW
Gusts 0.0 mph

Today
High -- | Low -- °F
--% Chance of Precip.
Yesterday
High -- | Low -- °F
Precip. -- in
Pressure 29.62 in
Visibility -9999.0 miles
Clouds
Dew Point 38 °F
Humidity 63%
Rainfall 0.00 in
Snow Depth Not available.
7:47 AM 5:16 PM
Waning Crescent, 2% visible
METAR EDDE 070820Z 18013KT CAVOK 07/01 Q1003 NOSIG
Pressure 29.62 in
Visibility -9999.0 miles
Clouds
Dew Point 38 °F
Humidity 63%
Rainfall 0.00 in
Snow Depth Not available.
7:47 AM 5:16 PM
Waning Crescent, 2% visible
METAR EDDE 070820Z 18013KT CAVOK 07/01 Q1003 NOSIG

10-Day Weather Forecast

Almanac

Astronomy

Feb. 07, 2016 Rise Set
Actual Time
Civil Twilight
Nautical Twilight
Astronomical Twilight
Moon
Length of Visible Light
Length of Day
Tomorrow will be .
, % of the Moon is Illuminated

Today's Extremes

Country Highs Country Lows

Community

WunderPhotos

Upload Photos

1,891,171 photos uploaded!

WunderBlog® & News

Nearby

Air Quality

  Air Quality AQ Index Pollutant
Not available.

Snow Depth

Station Depth Elevation

Earthquake Activity

City Distance Mag. Time & Date
Minimum magnitude displayed is 2.5.

Coastal Water Temperatures

Place Temperature

Stations

Nearby Weather Stations

Station Location Temp. Windchill Dew Point Humidity Wind Precip. Elev Updated Type